Time;durP1;ratioP1;P1;durP2;ratioP2;P2;SDS_P1;SDS_P2;PMS_P1;PMS_P2;Temp;Humidity;BMP_temperature;BMP_pressure;BME280_temperature;BME280_humidity;BME280_pressure;Samples;Min_cycle;Max_cycle;Signal;HPM_P1;HPM_P2
2023/05/23 00:00:22;;;;;;;;;33.00;28.33;;;;;17.90;62.50;101201.66;4989633;28;45492;-55
2023/05/23 00:02:48;;;;;;;;;30.33;28.33;;;;;17.86;62.71;101198.31;4996408;28;45424;-53
2023/05/23 00:05:16;;;;;;;;;30.33;27.67;;;;;17.82;62.79;101198.59;5004999;28;45361;-52
2023/05/23 00:07:42;;;;;;;;;31.67;30.00;;;;;17.80;62.85;101203.13;4995871;28;46780;-56
2023/05/23 00:10:08;;;;;;;;;30.33;28.00;;;;;17.85;62.59;101209.91;4995970;28;45512;-55
2023/05/23 00:12:33;;;;;;;;;27.33;25.33;;;;;17.87;62.55;101212.50;4996440;28;45396;-53
2023/05/23 00:14:59;;;;;;;;;26.67;25.67;;;;;17.81;62.79;101187.09;4994786;28;45494;-54
2023/05/23 00:17:25;;;;;;;;;35.67;31.33;;;;;17.85;62.62;101201.06;5002581;28;46380;-54
2023/05/23 00:19:50;;;;;;;;;30.67;25.67;;;;;17.90;62.09;101201.66;4996100;28;45467;-52
2023/05/23 00:22:16;;;;;;;;;31.33;26.67;;;;;17.85;62.32;101199.25;4995931;28;45952;-54
2023/05/23 00:24:41;;;;;;;;;29.67;27.00;;;;;17.77;62.40;101187.31;4996312;28;45607;-52
2023/05/23 00:27:07;;;;;;;;;29.00;29.00;;;;;17.81;62.28;101188.88;4995945;28;45396;-55
2023/05/23 00:29:32;;;;;;;;;31.33;27.33;;;;;17.69;62.74;101176.22;4995913;28;45446;-54
2023/05/23 00:31:57;;;;;;;;;27.00;25.33;;;;;17.69;62.54;101195.72;4996098;28;45423;-54
2023/05/23 00:34:23;;;;;;;;;24.00;24.00;;;;;17.69;62.37;101201.03;4995740;28;45479;-55
2023/05/23 00:36:49;;;;;;;;;25.00;22.67;;;;;17.66;62.30;101185.25;4995422;28;57252;-52
2023/05/23 00:39:18;;;;;;;;;34.00;28.00;;;;;17.70;62.57;101191.25;4995959;28;45440;-50
2023/05/23 00:41:45;;;;;;;;;28.00;26.00;;;;;17.71;62.30;101187.66;4988119;28;45454;-55
2023/05/23 00:44:11;;;;;;;;;30.67;28.67;;;;;17.79;61.92;101190.78;4996005;28;45575;-54
2023/05/23 00:46:36;;;;;;;;;28.67;24.67;;;;;17.79;61.68;101188.97;4994203;28;46205;-53
2023/05/23 00:49:02;;;;;;;;;31.67;28.67;;;;;17.79;61.70;101191.63;4995851;28;45565;-54
2023/05/23 00:51:27;;;;;;;;;22.67;21.67;;;;;17.74;61.60;101198.97;4994396;28;45543;-55
2023/05/23 00:53:53;;;;;;;;;28.33;26.33;;;;;17.72;61.73;101200.00;4996009;28;45502;-54
2023/05/23 00:56:19;;;;;;;;;27.67;26.67;;;;;17.65;61.56;101204.78;4995762;28;45666;-52
2023/05/23 00:58:45;;;;;;;;;33.33;29.33;;;;;17.59;61.57;101197.16;4995450;28;45459;-55
2023/05/23 01:01:10;;;;;;;;;26.00;24.67;;;;;17.50;61.04;101181.72;5002735;28;45389;-55
2023/05/23 01:03:36;;;;;;;;;24.67;23.33;;;;;17.51;61.54;101188.75;5003048;28;45517;-55
2023/05/23 01:06:01;;;;;;;;;23.33;20.00;;;;;17.55;61.77;101187.66;5000680;28;46892;-52
2023/05/23 01:08:28;;;;;;;;;28.00;24.67;;;;;17.54;61.23;101193.88;5002133;28;45403;-53
2023/05/23 01:11:00;;;;;;;;;23.00;21.67;;;;;17.56;61.34;101187.53;4982797;28;45437;-56
2023/05/23 01:13:37;;;;;;;;;26.67;25.00;;;;;17.56;61.39;101186.69;4994147;28;45372;-51
2023/05/23 01:16:47;;;;;;;;;24.00;22.00;;;;;17.51;60.93;101191.41;4983191;28;45444;-55
2023/05/23 01:19:21;;;;;;;;;25.00;22.33;;;;;17.53;60.94;101194.84;4962792;28;45525;-53
2023/05/23 01:21:53;;;;;;;;;24.33;24.33;;;;;17.51;60.75;101194.06;4995530;28;45384;-54
2023/05/23 01:24:52;;;;;;;;;24.67;23.67;;;;;17.57;60.72;101196.38;4995950;28;45544;-55
2023/05/23 01:27:38;;;;;;;;;25.67;21.67;;;;;17.60;60.77;101196.22;4995177;28;46206;-55
2023/05/23 01:30:06;;;;;;;;;24.33;23.00;;;;;17.60;60.25;101197.09;4997910;28;45441;-51
2023/05/23 01:32:32;;;;;;;;;27.33;22.33;;;;;17.57;60.44;101191.94;4998270;28;45424;-50
2023/05/23 01:34:59;;;;;;;;;26.00;24.33;;;;;17.56;60.63;101205.31;4995369;28;45631;-53
2023/05/23 01:37:24;;;;;;;;;22.33;22.33;;;;;17.49;60.73;101201.25;4993827;28;47190;-53
2023/05/23 01:39:49;;;;;;;;;27.67;25.67;;;;;17.46;61.02;101204.94;4993745;28;45672;-55
2023/05/23 01:42:15;;;;;;;;;27.67;26.00;;;;;17.43;61.10;101197.97;4995406;28;45435;-52
2023/05/23 01:44:41;;;;;;;;;26.00;22.67;;;;;17.50;61.39;101201.19;4995170;28;45420;-52
2023/05/23 01:47:09;;;;;;;;;26.67;26.00;;;;;17.53;60.82;101216.13;4995128;28;46307;-53
2023/05/23 01:49:37;;;;;;;;;23.33;23.00;;;;;17.51;60.62;101218.84;4994806;28;45445;-55
2023/05/23 01:52:04;;;;;;;;;23.33;21.33;;;;;17.50;60.79;101224.25;4995227;28;45420;-53
2023/05/23 01:54:31;;;;;;;;;24.00;23.33;;;;;17.44;60.85;101206.84;4998200;28;45506;-50
2023/05/23 01:56:56;;;;;;;;;20.33;20.33;;;;;17.53;60.45;101219.63;4998387;28;45446;-51
2023/05/23 01:59:22;;;;;;;;;22.00;22.00;;;;;17.54;60.46;101216.00;4998083;28;45440;-54
2023/05/23 02:01:48;;;;;;;;;28.00;23.33;;;;;17.35;60.38;101183.41;4998335;28;45448;-53
2023/05/23 02:04:13;;;;;;;;;21.33;20.67;;;;;17.54;60.26;101215.16;4998488;28;45572;-52
2023/05/23 02:06:38;;;;;;;;;24.67;22.00;;;;;17.41;60.36;101194.56;4997392;28;45768;-53
2023/05/23 02:09:04;;;;;;;;;19.67;19.67;;;;;17.48;60.78;101219.03;4998127;28;45478;-53
2023/05/23 02:11:29;;;;;;;;;28.00;23.00;;;;;17.47;60.54;101217.31;4997998;28;45445;-52
2023/05/23 02:13:54;;;;;;;;;25.33;23.67;;;;;17.42;60.64;101212.22;5000888;28;45439;-55
2023/05/23 02:16:20;;;;;;;;;23.33;20.33;;;;;17.42;60.99;101214.91;4997587;28;46165;-53
2023/05/23 02:18:45;;;;;;;;;23.33;21.33;;;;;17.38;60.73;101213.34;5001144;28;45490;-55
2023/05/23 02:21:11;;;;;;;;;24.33;22.00;;;;;17.37;60.89;101206.31;4997292;28;45508;-55
2023/05/23 02:23:36;;;;;;;;;24.33;23.33;;;;;17.38;60.58;101216.03;4998641;28;45965;-53
2023/05/23 02:26:02;;;;;;;;;31.00;27.67;;;;;17.38;60.83;101220.44;5002359;28;45429;-55
2023/05/23 02:28:27;;;;;;;;;24.00;22.33;;;;;17.36;60.82;101225.00;5003322;28;45402;-52
2023/05/23 02:30:52;;;;;;;;;27.67;23.00;;;;;17.27;61.21;101212.19;4998081;28;45413;-55
2023/05/23 02:33:18;;;;;;;;;27.67;26.00;;;;;17.32;60.86;101218.13;4997927;28;45548;-54
2023/05/23 02:35:43;;;;;;;;;27.00;25.33;;;;;17.29;61.33;101223.63;4997719;28;46452;-53
2023/05/23 02:38:09;;;;;;;;;29.33;27.00;;;;;17.23;61.59;101211.50;5001274;28;45426;-53
2023/05/23 02:40:34;;;;;;;;;28.00;26.33;;;;;17.23;61.51;101215.03;5001461;28;45496;-52
2023/05/23 02:42:59;;;;;;;;;26.67;24.67;;;;;17.18;61.53;101210.91;4997738;28;45366;-54
2023/05/23 02:45:25;;;;;;;;;30.33;27.67;;;;;17.10;61.88;101213.09;4997549;28;45445;-53
2023/05/23 02:47:50;;;;;;;;;25.33;25.33;;;;;17.11;61.57;101214.81;4997661;28;45440;-55
2023/05/23 02:50:16;;;;;;;;;24.67;23.33;;;;;17.14;61.81;101204.00;4980059;28;45488;-54
2023/05/23 02:52:41;;;;;;;;;29.33;23.33;;;;;17.10;61.65;101213.09;4997852;28;45740;-49
2023/05/23 02:55:07;;;;;;;;;28.00;23.00;;;;;17.03;62.06;101209.88;4997129;28;46474;-50
2023/05/23 02:57:33;;;;;;;;;24.00;22.33;;;;;17.07;61.91;101207.97;4997429;28;45476;-55
2023/05/23 02:59:58;;;;;;;;;31.33;31.33;;;;;17.10;61.95;101203.31;4997385;28;45453;-53
2023/05/23 03:02:23;;;;;;;;;31.00;30.00;;;;;17.18;61.52;101214.41;4997625;28;45651;-51
2023/05/23 03:04:49;;;;;;;;;25.67;23.33;;;;;17.18;61.57;101209.09;4997085;28;46285;-52
2023/05/23 03:07:15;;;;;;;;;31.67;29.33;;;;;17.15;61.41;101216.38;4997329;28;45438;-53
2023/05/23 03:09:40;;;;;;;;;26.00;24.67;;;;;17.10;61.97;101216.63;4997250;28;45400;-55
2023/05/23 03:12:05;;;;;;;;;27.33;22.33;;;;;17.16;61.71;101223.41;4997291;28;45604;-55
2023/05/23 03:14:31;;;;;;;;;23.00;22.00;;;;;17.12;61.35;101211.22;4999109;28;45605;-55
2023/05/23 03:16:56;;;;;;;;;28.00;27.67;;;;;17.17;61.18;101225.13;4999373;28;45381;-55
2023/05/23 03:19:22;;;;;;;;;24.67;22.33;;;;;17.17;61.59;101217.16;4997080;28;45451;-55
2023/05/23 03:21:49;;;;;;;;;24.33;24.33;;;;;17.18;61.60;101218.88;4993351;28;45507;-51
2023/05/23 03:24:15;;;;;;;;;33.67;31.67;;;;;17.13;61.53;101219.09;5004088;28;46177;-49
2023/05/23 03:26:40;;;;;;;;;29.33;28.67;;;;;17.05;62.00;101215.13;5000463;28;45428;-55
2023/05/23 03:29:06;;;;;;;;;29.00;27.67;;;;;16.97;62.12;101224.38;4996358;28;45400;-55
2023/05/23 03:31:31;;;;;;;;;30.33;30.33;;;;;16.99;62.48;101230.47;5005374;28;45498;-54
2023/05/23 03:33:56;;;;;;;;;30.00;29.00;;;;;16.95;62.43;101228.03;4998825;28;55158;-57
2023/05/23 03:36:24;;;;;;;;;30.33;28.67;;;;;16.88;62.38;101240.78;5002035;28;45498;-57
2023/05/23 03:38:50;;;;;;;;;26.00;25.00;;;;;16.84;62.50;101239.22;4995477;28;45432;-53
2023/05/23 03:41:15;;;;;;;;;26.67;23.00;;;;;16.88;62.43;101237.28;4996877;28;45594;-57
2023/05/23 03:43:41;;;;;;;;;27.67;25.00;;;;;16.95;62.58;101247.53;4996360;28;56012;-51
2023/05/23 03:46:06;;;;;;;;;30.00;27.67;;;;;16.91;62.27;101253.06;4996507;28;45346;-55
2023/05/23 03:48:31;;;;;;;;;37.33;31.67;;;;;16.89;62.55;101245.16;5000094;28;45802;-54
2023/05/23 03:50:57;;;;;;;;;28.33;27.00;;;;;16.90;62.61;101251.31;4996135;28;45297;-53
2023/05/23 03:53:22;;;;;;;;;27.33;27.00;;;;;16.87;62.42;101247.06;4996128;28;45434;-54
2023/05/23 03:55:47;;;;;;;;;33.33;28.67;;;;;16.88;62.65;101261.19;4996695;28;45381;-55
2023/05/23 03:58:13;;;;;;;;;27.00;25.00;;;;;16.77;62.63;101251.97;4996575;28;45373;-55
2023/05/23 04:00:38;;;;;;;;;34.33;31.33;;;;;16.75;62.19;101255.59;4996789;28;45414;-54
2023/05/23 04:03:04;;;;;;;;;37.33;32.00;;;;;16.65;63.29;101249.03;4996364;28;45543;-55
2023/05/23 04:05:29;;;;;;;;;40.33;34.00;;;;;16.63;63.04;101253.56;4996464;28;45408;-51
2023/05/23 04:07:55;;;;;;;;;35.33;32.00;;;;;16.63;63.08;101256.22;4996655;28;45573;-53
2023/05/23 04:10:21;;;;;;;;;32.00;29.67;;;;;16.66;63.02;101259.59;4994857;28;45556;-54
2023/05/23 04:12:46;;;;;;;;;28.67;28.67;;;;;16.66;62.34;101266.72;4996342;28;45424;-52
2023/05/23 04:15:12;;;;;;;;;33.67;28.33;;;;;16.60;62.48;101264.34;4994249;28;45438;-52
2023/05/23 04:17:37;;;;;;;;;30.00;29.00;;;;;16.55;62.51;101270.75;4996255;28;45524;-54
2023/05/23 04:20:08;;;;;;;;;32.00;28.33;;;;;16.52;62.72;101267.38;4996249;28;45416;-55
2023/05/23 04:22:33;;;;;;;;;30.67;28.33;;;;;16.55;62.56;101268.09;4995925;28;46451;-55
2023/05/23 04:24:59;;;;;;;;;30.00;27.67;;;;;16.49;62.70;101275.50;4981627;28;45996;-51
2023/05/23 04:27:24;;;;;;;;;31.33;30.00;;;;;16.42;63.15;101276.75;5003215;28;45380;-54
2023/05/23 04:29:51;;;;;;;;;31.00;29.00;;;;;16.37;62.86;101273.44;4976438;28;45444;-55
2023/05/23 04:32:18;;;;;;;;;28.67;27.33;;;;;16.34;63.26;101271.81;4984739;28;45545;-52
2023/05/23 04:34:44;;;;;;;;;32.33;27.67;;;;;16.36;62.87;101280.53;4976013;28;45511;-53
2023/05/23 04:37:09;;;;;;;;;35.33;29.33;;;;;16.34;62.81;101266.50;4976405;28;45439;-54
2023/05/23 04:39:35;;;;;;;;;31.67;28.33;;;;;16.25;63.11;101251.00;4976389;28;45510;-53
2023/05/23 04:42:00;;;;;;;;;27.67;27.33;;;;;16.40;63.00;101281.25;4977794;28;45452;-53
2023/05/23 04:44:29;;;;;;;;;30.00;27.00;;;;;16.32;63.60;101274.53;4988959;28;45430;-54
2023/05/23 04:46:55;;;;;;;;;32.67;28.67;;;;;16.28;63.43;101285.34;4976363;28;45426;-53
2023/05/23 04:49:21;;;;;;;;;31.00;28.33;;;;;16.25;63.70;101285.50;5001391;28;45637;-53
2023/05/23 04:51:47;;;;;;;;;27.33;25.67;;;;;16.24;63.54;101294.41;4990966;28;47497;-50
2023/05/23 04:54:12;;;;;;;;;27.00;24.00;;;;;16.23;63.58;101287.41;4975933;28;45373;-53
2023/05/23 04:56:38;;;;;;;;;25.67;24.33;;;;;16.19;63.44;101289.31;4976008;28;45407;-52
2023/05/23 04:59:03;;;;;;;;;27.67;24.33;;;;;16.20;63.86;101290.16;4976144;28;45630;-52
2023/05/23 05:01:30;;;;;;;;;26.00;23.50;;;;;16.20;63.74;101296.38;4987920;28;46068;-54
2023/05/23 05:03:55;;;;;;;;;20.33;18.67;;;;;16.27;63.18;101287.16;4975719;28;45421;-54
2023/05/23 05:06:21;;;;;;;;;24.67;24.67;;;;;16.31;63.86;101288.75;4991003;28;45445;-55
2023/05/23 05:08:47;;;;;;;;;21.33;21.33;;;;;16.32;63.81;101294.91;4976001;28;45440;-54
2023/05/23 05:11:12;;;;;;;;;21.67;21.33;;;;;16.26;63.73;101295.22;4975519;28;45441;-53
2023/05/23 05:13:37;;;;;;;;;25.67;25.67;;;;;16.31;63.92;101302.00;4975891;28;45459;-54
2023/05/23 05:16:03;;;;;;;;;32.00;26.33;;;;;16.25;63.92;101289.00;4976063;28;45484;-54
2023/05/23 05:18:29;;;;;;;;;24.00;23.00;;;;;16.20;63.85;101292.81;4975626;28;45341;-55
2023/05/23 05:20:54;;;;;;;;;24.33;24.00;;;;;16.25;64.46;101306.75;4975654;28;46490;-53
2023/05/23 05:23:23;;;;;;;;;21.67;21.33;;;;;16.27;64.28;101305.72;4991421;28;45527;-53
2023/05/23 05:25:49;;;;;;;;;24.33;24.33;;;;;16.28;63.96;101306.59;5004963;28;45566;-55
2023/05/23 05:28:14;;;;;;;;;22.00;22.00;;;;;16.30;63.86;101297.63;5008475;28;45407;-54
2023/05/23 05:30:40;;;;;;;;;21.33;20.00;;;;;16.29;63.60;101295.06;5006505;28;46101;-54
2023/05/23 05:33:06;;;;;;;;;17.33;15.67;;;;;16.32;64.06;101287.78;4993525;28;45921;-54
2023/05/23 05:35:37;;;;;;;;;27.00;24.67;;;;;16.43;63.59;101300.53;5002091;28;45543;-54
2023/05/23 05:38:03;;;;;;;;;19.67;19.67;;;;;16.44;64.18;101298.75;4998711;28;45455;-55
2023/05/23 05:40:29;;;;;;;;;27.33;26.33;;;;;16.45;63.69;101298.69;4998336;28;46259;-53
2023/05/23 05:42:54;;;;;;;;;22.33;20.33;;;;;16.44;63.92;101302.28;5003022;28;45500;-49
2023/05/23 05:45:19;;;;;;;;;18.67;17.67;;;;;16.50;63.54;101306.44;4998590;28;45488;-48
2023/05/23 05:47:45;;;;;;;;;22.67;20.33;;;;;16.49;63.24;101313.50;4998455;28;45654;-53
2023/05/23 05:50:11;;;;;;;;;20.67;19.67;;;;;16.44;63.23;101306.72;5000668;28;46743;-52
2023/05/23 05:52:37;;;;;;;;;20.00;17.33;;;;;16.42;63.55;101328.03;5003995;28;45451;-51
2023/05/23 05:55:05;;;;;;;;;24.67;24.33;;;;;16.42;63.81;101316.56;4999374;28;45508;-56
2023/05/23 05:57:31;;;;;;;;;25.33;24.00;;;;;16.43;63.41;101307.66;4998387;28;45611;-51
2023/05/23 05:59:56;;;;;;;;;20.33;18.00;;;;;16.44;63.79;101310.25;5000423;28;48014;-52
2023/05/23 06:02:21;;;;;;;;;18.00;17.00;;;;;16.49;63.43;101325.94;5009429;28;46225;-53
2023/05/23 06:04:47;;;;;;;;;22.67;21.00;;;;;16.48;63.90;101316.25;5001969;28;45420;-55
2023/05/23 06:07:12;;;;;;;;;20.33;19.33;;;;;16.50;63.97;101325.88;5007203;28;45418;-53
2023/05/23 06:09:37;;;;;;;;;23.33;21.00;;;;;16.46;64.02;101326.94;5003341;28;46648;-52
2023/05/23 06:12:03;;;;;;;;;25.00;24.33;;;;;16.40;64.05;101316.63;5009442;28;45577;-52
2023/05/23 06:14:28;;;;;;;;;18.67;18.67;;;;;16.49;64.20;101320.63;4998204;28;45362;-53
2023/05/23 06:16:53;;;;;;;;;20.00;20.00;;;;;16.50;63.97;101325.88;4997426;28;45460;-52
2023/05/23 06:19:19;;;;;;;;;20.00;18.67;;;;;16.48;64.03;101313.59;4992467;28;47176;-54
2023/05/23 06:21:44;;;;;;;;;16.33;16.33;;;;;16.50;64.22;101320.56;5002021;28;45424;-61
2023/05/23 06:24:09;;;;;;;;;21.00;18.33;;;;;16.46;63.69;101321.63;4997959;28;45419;-61
2023/05/23 06:26:36;;;;;;;;;22.00;20.00;;;;;16.34;64.26;101319.59;5007491;28;45365;-59
2023/05/23 06:29:02;;;;;;;;;19.33;17.00;;;;;16.40;64.34;101331.72;4998399;28;46285;-59
2023/05/23 06:31:27;;;;;;;;;15.67;15.67;;;;;16.40;64.02;101331.72;4995777;28;45409;-60
2023/05/23 06:33:53;;;;;;;;;19.33;18.00;;;;;16.40;64.21;101335.22;4998691;28;45505;-59
2023/05/23 06:36:18;;;;;;;;;20.33;18.00;;;;;16.27;64.04;101312.84;5000373;28;45590;-58
2023/05/23 06:38:44;;;;;;;;;20.33;18.67;;;;;16.40;64.54;101335.22;5000263;28;46385;-59
2023/05/23 06:41:09;;;;;;;;;19.00;18.00;;;;;16.44;64.14;101330.59;5002114;28;49678;-59
2023/05/23 06:43:34;;;;;;;;;19.67;19.67;;;;;16.47;64.15;101338.41;4996169;28;45499;-62
2023/05/23 06:46:00;;;;;;;;;19.67;19.33;;;;;16.50;64.09;101335.66;5008955;28;45440;-63
2023/05/23 06:48:25;;;;;;;;;21.33;21.33;;;;;16.45;63.81;101338.50;5000694;28;45456;-60
2023/05/23 06:50:50;;;;;;;;;23.67;22.67;;;;;16.49;64.23;101355.16;4997220;28;45519;-60
2023/05/23 06:53:17;;;;;;;;;20.67;19.33;;;;;16.48;64.82;101348.97;5001460;28;45939;-61
2023/05/23 06:55:42;;;;;;;;;23.00;20.67;;;;;16.53;64.21;101352.28;4979893;28;45496;-60
2023/05/23 06:58:08;;;;;;;;;24.00;24.00;;;;;16.58;64.11;101360.03;4997080;28;45601;-60
2023/05/23 07:00:33;;;;;;;;;21.67;21.67;;;;;16.60;64.09;101360.78;4997079;28;45428;-60
2023/05/23 07:03:02;;;;;;;;;24.33;23.33;;;;;16.62;64.08;101366.03;5009654;28;45616;-61
2023/05/23 07:05:27;;;;;;;;;25.67;23.00;;;;;16.60;64.20;101360.78;4997263;28;45536;-63
2023/05/23 07:07:53;;;;;;;;;19.33;19.00;;;;;16.64;63.38;101369.50;4996832;28;46046;-61
2023/05/23 07:10:19;;;;;;;;;21.00;20.00;;;;;16.63;63.76;101371.31;4996521;28;45685;-62
2023/05/23 07:12:45;;;;;;;;;21.33;21.00;;;;;16.62;63.65;101358.94;4998412;28;45443;-60
2023/05/23 07:15:10;;;;;;;;;20.00;18.33;;;;;16.70;63.50;101372.69;5006355;28;45547;-59
2023/05/23 07:17:36;;;;;;;;;20.67;20.33;;;;;16.71;63.40;101381.53;4996883;28;45412;-59
2023/05/23 07:20:03;;;;;;;;;21.33;20.00;;;;;16.62;63.52;101379.31;5000485;28;45518;-59
2023/05/23 07:22:28;;;;;;;;;20.33;20.33;;;;;16.64;63.69;101385.44;5001428;28;45573;-59
2023/05/23 07:24:54;;;;;;;;;23.33;23.33;;;;;16.65;63.57;101381.84;4996927;28;45409;-56
2023/05/23 07:27:19;;;;;;;;;20.33;19.67;;;;;16.65;63.64;101379.19;4996250;28;46138;-59
2023/05/23 07:29:45;;;;;;;;;21.67;20.67;;;;;16.69;63.32;101388.72;4985920;28;45557;-55
2023/05/23 07:32:10;;;;;;;;;16.33;16.33;;;;;16.67;63.86;101382.63;5001562;28;46586;-52
2023/05/23 07:34:35;;;;;;;;;24.00;24.00;;;;;16.68;63.98;101387.84;4993167;28;45536;-61
2023/05/23 07:37:01;;;;;;;;;25.67;23.33;;;;;16.64;63.81;101370.34;4992678;28;45518;-61
2023/05/23 07:39:26;;;;;;;;;18.00;18.00;;;;;16.72;63.72;101391.25;4997161;28;45433;-61
2023/05/23 07:41:52;;;;;;;;;19.33;18.33;;;;;16.64;63.57;101383.63;5003214;28;45490;-59
2023/05/23 07:44:18;;;;;;;;;22.33;20.67;;;;;16.69;63.81;101388.72;4996217;28;45420;-59
2023/05/23 07:46:43;;;;;;;;;25.00;22.00;;;;;16.71;63.41;101393.03;4995144;28;45595;-58
2023/05/23 07:49:08;;;;;;;;;24.33;21.33;;;;;16.77;63.37;101402.53;4995893;28;45360;-58
2023/05/23 07:51:34;;;;;;;;;25.67;23.00;;;;;16.73;62.84;101406.22;4994919;28;45592;-56
2023/05/23 07:53:59;;;;;;;;;25.00;23.00;;;;;16.69;63.33;101394.91;5002492;28;51762;-55
2023/05/23 07:56:25;;;;;;;;;24.33;22.67;;;;;16.71;63.01;101408.97;4999314;28;45582;-60
2023/05/23 07:58:51;;;;;;;;;24.00;21.67;;;;;16.70;63.40;101401.06;5007272;28;45531;-59
2023/05/23 08:01:17;;;;;;;;;20.33;20.33;;;;;16.74;63.22;101413.28;4994218;28;45765;-59
2023/05/23 08:03:42;;;;;;;;;22.33;21.33;;;;;16.72;63.19;101407.16;4996143;28;45548;-59
2023/05/23 08:06:08;;;;;;;;;25.33;23.67;;;;;16.73;63.15;101411.53;4994531;28;47462;-58
2023/05/23 08:08:33;;;;;;;;;21.00;21.00;;;;;16.73;63.15;101407.09;4995686;28;45571;-58
2023/05/23 08:10:58;;;;;;;;;22.00;22.00;;;;;16.75;63.16;101412.34;4995887;28;45813;-59
2023/05/23 08:13:24;;;;;;;;;21.33;20.33;;;;;16.79;62.97;101421.91;4995880;28;45547;-60
2023/05/23 08:15:49;;;;;;;;;25.00;24.67;;;;;16.76;63.15;101399.00;4995323;28;46510;-55
2023/05/23 08:18:15;;;;;;;;;24.00;21.67;;;;;16.77;63.41;101406.03;5006957;28;45381;-59
2023/05/23 08:20:41;;;;;;;;;16.33;15.33;;;;;16.81;62.99;101411.22;5002980;28;45521;-64
2023/05/23 08:23:06;;;;;;;;;16.33;16.00;;;;;16.84;63.15;101408.41;4995502;28;45424;-56
2023/05/23 08:25:32;;;;;;;;;21.00;21.00;;;;;16.88;62.63;101420.63;5005643;28;45565;-49
2023/05/23 08:27:59;;;;;;;;;18.33;18.33;;;;;16.90;62.48;101421.38;4994255;28;45470;-47
2023/05/23 08:30:25;;;;;;;;;21.00;21.00;;;;;16.84;62.42;101414.56;4976889;28;45476;-48
2023/05/23 08:32:52;;;;;;;;;23.00;19.00;;;;;16.85;62.87;101415.44;4997057;28;45540;-48
2023/05/23 08:35:18;;;;;;;;;22.33;21.00;;;;;16.83;63.10;101410.19;4995288;28;46351;-48
2023/05/23 08:37:45;;;;;;;;;17.33;17.33;;;;;16.82;62.74;101404.94;4992702;28;45499;-50
2023/05/23 08:40:17;;;;;;;;;14.33;14.33;;;;;16.89;62.16;101412.56;5002905;28;45370;-52
2023/05/23 08:42:42;;;;;;;;;18.67;18.67;;;;;16.90;62.29;101422.25;4996238;28;45520;-60
2023/05/23 08:45:08;;;;;;;;;18.33;16.00;;;;;16.96;62.13;101427.28;4990988;28;46389;-59
2023/05/23 08:47:39;;;;;;;;;19.33;18.00;;;;;16.94;61.90;101421.16;4992870;28;45449;-59
2023/05/23 08:50:16;;;;;;;;;24.67;21.67;;;;;16.97;61.97;101423.66;4995439;28;45495;-48
2023/05/23 08:53:03;;;;;;;;;25.00;24.00;;;;;17.02;62.46;101438.53;4995574;28;45448;-60
2023/05/23 08:55:29;;;;;;;;;20.67;19.00;;;;;17.05;62.37;101431.25;4981650;28;46289;-51
2023/05/23 08:57:58;;;;;;;;;23.67;20.67;;;;;17.00;62.39;101414.69;4994352;28;45436;-49
2023/05/23 09:00:24;;;;;;;;;25.00;20.33;;;;;17.00;62.73;101425.31;4994914;28;45451;-51
2023/05/23 09:02:50;;;;;;;;;20.00;19.67;;;;;17.02;62.46;101427.91;4995755;28;45511;-61
2023/05/23 09:05:15;;;;;;;;;24.33;23.33;;;;;16.99;62.82;101432.44;4996108;28;46222;-60
2023/05/23 09:07:45;;;;;;;;;14.67;12.67;;;;;17.00;62.92;101431.47;4999549;28;45458;-60
2023/05/23 09:10:11;;;;;;;;;20.67;19.00;;;;;17.01;62.95;101435.03;5000807;28;45348;-60
2023/05/23 09:12:37;;;;;;;;;24.00;23.00;;;;;17.05;62.61;101436.59;4982121;28;45559;-61
2023/05/23 09:15:09;;;;;;;;;25.67;24.00;;;;;17.05;62.65;101447.22;4998551;28;46756;-60
2023/05/23 09:17:35;;;;;;;;;26.67;23.67;;;;;17.07;62.79;101442.69;4997702;28;45418;-55
2023/05/23 09:20:01;;;;;;;;;23.33;20.33;;;;;17.06;63.00;101432.13;4998681;28;45421;-54
2023/05/23 09:22:27;;;;;;;;;23.00;20.00;;;;;17.06;62.91;101429.47;5000278;28;45518;-60
2023/05/23 09:24:56;;;;;;;;;23.00;22.67;;;;;17.18;62.76;101440.34;5001987;28;45530;-59
2023/05/23 09:27:21;;;;;;;;;25.00;23.33;;;;;17.12;62.44;101434.50;4999546;28;45442;-58
2023/05/23 09:29:48;;;;;;;;;22.67;22.33;;;;;17.07;62.94;101441.84;4994819;28;45451;-60
2023/05/23 09:32:16;;;;;;;;;24.33;21.67;;;;;16.96;63.67;101432.59;4997159;28;45555;-60
2023/05/23 09:34:53;;;;;;;;;26.33;24.00;;;;;16.94;63.52;101437.09;4998366;28;46187;-60
2023/05/23 09:37:23;;;;;;;;;24.67;23.00;;;;;16.94;63.46;101437.09;4998470;28;45573;-59
2023/05/23 09:39:49;;;;;;;;;25.33;23.33;;;;;16.96;63.35;101445.88;4998676;28;45443;-60
2023/05/23 09:42:20;;;;;;;;;27.00;23.67;;;;;16.99;63.55;101443.06;5001069;28;45554;-60
2023/05/23 09:44:46;;;;;;;;;25.00;24.00;;;;;17.05;63.45;101438.38;4990164;28;46140;-61
2023/05/23 09:47:11;;;;;;;;;28.67;26.67;;;;;17.04;63.04;101424.25;4997886;28;53538;-62
2023/05/23 09:49:39;;;;;;;;;24.67;24.67;;;;;17.14;63.22;101438.81;4998078;28;49736;-62
2023/05/23 09:52:04;;;;;;;;;26.00;25.00;;;;;17.06;63.03;101433.00;4998182;28;45417;-59
2023/05/23 09:54:29;;;;;;;;;25.67;25.67;;;;;17.10;62.98;101442.53;4998133;28;45516;-61
2023/05/23 09:57:00;;;;;;;;;24.33;23.00;;;;;17.10;62.75;101439.03;4998187;28;45424;-61
2023/05/23 09:59:27;;;;;;;;;25.67;23.00;;;;;17.04;62.65;101426.91;4998503;28;45494;-60
2023/05/23 10:01:56;;;;;;;;;25.33;23.00;;;;;17.16;62.60;101449.34;4997794;28;45410;-60
2023/05/23 10:04:22;;;;;;;;;27.67;25.33;;;;;17.19;62.45;101447.41;4997853;28;46625;-62
2023/05/23 10:06:58;;;;;;;;;22.67;20.67;;;;;17.17;62.51;101443.97;4997892;28;45369;-61
2023/05/23 10:09:27;;;;;;;;;30.00;28.33;;;;;17.11;62.53;101443.38;4997997;28;45448;-62
2023/05/23 10:12:30;;;;;;;;;33.00;29.33;;;;;17.11;62.81;101454.88;4997395;28;45432;-61
2023/05/23 10:15:00;;;;;;;;;26.67;25.33;;;;;17.16;61.98;101449.34;4996568;28;46859;-61
2023/05/23 10:17:37;;;;;;;;;25.33;24.33;;;;;17.09;62.19;101438.16;4999723;28;45488;-59
2023/05/23 10:20:09;;;;;;;;;22.00;21.00;;;;;17.16;61.39;101444.88;5002936;28;45388;-60
2023/05/23 10:22:36;;;;;;;;;20.33;20.33;;;;;17.22;61.48;101444.59;4997405;28;45397;-64
2023/05/23 10:25:04;;;;;;;;;26.00;21.67;;;;;17.27;61.13;101439.03;4997229;28;46576;-58
2023/05/23 10:27:30;;;;;;;;;19.00;19.00;;;;;17.28;60.49;101440.78;4996425;28;45543;-52
2023/05/23 10:29:57;;;;;;;;;15.67;14.33;;;;;17.30;60.17;101449.53;4979765;28;45488;-52
2023/05/23 10:32:25;;;;;;;;;22.67;16.67;;;;;17.31;60.26;101450.41;4997183;28;45495;-49
2023/05/23 10:34:56;;;;;;;;;18.33;18.33;;;;;17.33;60.66;101448.50;4997052;28;46180;-54
2023/05/23 10:37:55;;;;;;;;;21.00;21.00;;;;;17.39;61.01;101450.88;4996736;28;45523;-50
2023/05/23 10:40:37;;;;;;;;;16.00;16.00;;;;;17.39;60.44;101450.88;4997165;28;45508;-61
2023/05/23 10:43:28;;;;;;;;;22.00;20.67;;;;;17.44;60.42;101455.03;4979796;28;45596;-60
2023/05/23 10:45:53;;;;;;;;;22.33;22.00;;;;;17.39;61.10;101443.75;4996439;28;46227;-63
2023/05/23 10:48:34;;;;;;;;;19.00;19.00;;;;;17.43;60.76;101450.63;4996913;28;45437;-62
2023/05/23 10:51:09;;;;;;;;;24.00;21.67;;;;;17.46;60.07;101454.91;4982245;28;45493;-61
2023/05/23 10:53:40;;;;;;;;;22.67;21.00;;;;;17.42;60.81;101446.25;4984137;28;45420;-61
2023/05/23 10:56:10;;;;;;;;;25.33;22.33;;;;;17.40;60.76;101453.44;4996806;28;45519;-61
2023/05/23 10:58:38;;;;;;;;;16.33;16.00;;;;;17.40;60.43;101450.78;4984265;28;45499;-59
2023/05/23 11:01:07;;;;;;;;;27.33;25.33;;;;;17.42;60.41;101446.25;4999359;28;45523;-57
2023/05/23 11:03:36;;;;;;;;;24.67;23.67;;;;;17.43;60.21;101444.44;4997820;28;45397;-63
2023/05/23 11:06:03;;;;;;;;;28.67;25.67;;;;;17.42;60.68;101448.91;5000577;28;45751;-56
2023/05/23 11:08:41;;;;;;;;;19.00;17.00;;;;;17.43;60.42;101444.44;4996740;28;45442;-53